首页
METAR-TAF:

METAR-TAF

机场 :

RAF

Boulmer, 英格兰

纬度: 55-25-19N, 经度: 1-36-12W, 海拔: 24米

当前天气观测

该预报发布于1小时和2分钟前的15:50 UTC
风速18节,风向西转西北
温度 11°C
湿度 47%
气压 1008 hPa
能见度10公里或以上

METAR: EGQM 021550Z AUTO 29018KT 9999 BKN050/// 11/M00 Q1008

时间: 17:52 (16:52 UTC)


TAF: 丢失

超过4000个机场的气象观测和天气预报(METAR&TAF报告)。

可查询的气象台以黄色和红色小点在地图上表示。

将鼠标移到小点上方,可查看气象台名称。

然后点击查看天气观测和预报。

如需切换地图:点击带黑十字的绿色按钮放大地图;点击带横线的绿色按钮缩小地图;或者点击绿色箭头查看邻近地区的地图。


METAR-TAF: